Time;durP1;ratioP1;P1;durP2;ratioP2;P2;SDS_P1;SDS_P2;PMS_P1;PMS_P2;Temp;Humidity;BMP_temperature;BMP_pressure;BME280_temperature;BME280_humidity;BME280_pressure;Samples;Min_cycle;Max_cycle;Signal;HPM_P1;HPM_P2
2023/08/10 00:03:20;;;;;;;1.65;0.60;;;;;;;11.24;100.00;98740.13;15281390;19;20094;-51
2023/08/10 00:08:45;;;;;;;1.27;0.40;;;;;;;11.20;100.00;98740.59;15290693;19;20085;-53
2023/08/10 00:14:10;;;;;;;1.80;0.50;;;;;;;11.13;100.00;98739.53;15295458;19;20546;-52
2023/08/10 00:19:37;;;;;;;0.57;0.40;;;;;;;11.08;100.00;98751.66;15297288;19;20018;-54
2023/08/10 00:25:02;;;;;;;0.85;0.35;;;;;;;11.03;100.00;98745.88;15293624;19;20082;-54
2023/08/10 00:30:27;;;;;;;2.00;0.40;;;;;;;10.98;100.00;98742.81;15293519;19;20018;-55
2023/08/10 00:35:55;;;;;;;1.95;0.52;;;;;;;10.96;100.00;98742.09;15292094;19;20018;-52
2023/08/10 00:41:20;;;;;;;1.02;0.50;;;;;;;10.94;100.00;98744.94;15293134;19;20050;-55
2023/08/10 00:46:46;;;;;;;1.25;0.50;;;;;;;10.94;100.00;98747.63;15293788;19;20042;-53
2023/08/10 00:52:13;;;;;;;0.47;0.47;;;;;;;10.97;100.00;98746.50;15297079;19;20033;-55
2023/08/10 00:57:38;;;;;;;1.55;0.50;;;;;;;11.00;100.00;98746.16;15291562;19;20014;-57
2023/08/10 01:03:04;;;;;;;2.45;0.52;;;;;;;11.02;100.00;98738.78;15286677;19;20690;-52
2023/08/10 01:08:39;;;;;;;1.15;0.40;;;;;;;11.08;100.00;98742.69;15286282;19;20050;-56
2023/08/10 01:14:13;;;;;;;0.82;0.50;;;;;;;11.12;100.00;98740.53;15292890;19;20022;-56
2023/08/10 01:19:41;;;;;;;0.68;0.60;;;;;;;11.15;100.00;98749.16;15293547;19;20059;-54
2023/08/10 01:25:11;;;;;;;0.82;0.40;;;;;;;11.18;100.00;98748.84;15292228;19;20031;-56
2023/08/10 01:30:37;;;;;;;1.77;0.47;;;;;;;11.18;100.00;98754.22;15294187;19;20422;-53
2023/08/10 01:36:02;;;;;;;1.58;0.68;;;;;;;11.19;100.00;98749.69;15286331;19;20086;-55
2023/08/10 01:41:31;;;;;;;0.63;0.50;;;;;;;11.19;100.00;98760.47;15288638;19;20019;-52
2023/08/10 01:47:05;;;;;;;0.88;0.60;;;;;;;11.18;100.00;98761.47;15290441;19;20114;-56
2023/08/10 01:52:36;;;;;;;1.00;0.60;;;;;;;11.18;100.00;98756.94;15293228;19;20057;-53
2023/08/10 01:58:07;;;;;;;1.60;0.50;;;;;;;11.14;100.00;98760.97;15288067;19;20033;-51
2023/08/10 02:03:31;;;;;;;1.38;0.60;;;;;;;11.14;100.00;98766.34;15291219;19;20078;-55
2023/08/10 02:08:55;;;;;;;1.85;0.70;;;;;;;11.12;100.00;98759.41;15279578;19;20011;-56
2023/08/10 02:14:24;;;;;;;2.25;0.93;;;;;;;11.12;100.00;98767.50;15288652;19;20034;-55
2023/08/10 02:19:50;;;;;;;1.00;0.60;;;;;;;11.10;100.00;98773.91;15290206;19;20082;-56
2023/08/10 02:25:15;;;;;;;0.95;0.50;;;;;;;11.12;100.00;98770.19;15285871;19;20024;-55
2023/08/10 02:30:45;;;;;;;0.50;0.50;;;;;;;11.13;100.00;98766.50;15286060;19;20010;-57
2023/08/10 02:36:10;;;;;;;1.17;0.70;;;;;;;11.12;100.00;98767.50;15286734;19;20510;-55
2023/08/10 02:41:34;;;;;;;4.60;0.70;;;;;;;11.10;100.00;98771.22;15276104;19;20018;-55
2023/08/10 02:47:03;;;;;;;0.90;0.50;;;;;;;11.10;100.00;98765.81;15285473;19;20014;-54
2023/08/10 02:52:28;;;;;;;0.50;0.50;;;;;;;11.08;100.00;98767.81;15288508;19;20502;-54
2023/08/10 02:57:54;;;;;;;2.58;0.70;;;;;;;11.09;100.00;98771.34;15284003;19;20022;-52
2023/08/10 03:03:22;;;;;;;0.88;0.50;;;;;;;11.02;100.00;98792.69;15283662;19;20082;-52
2023/08/10 03:08:47;;;;;;;0.65;0.55;;;;;;;10.96;100.00;98785.25;15283061;19;20020;-51
2023/08/10 03:14:13;;;;;;;1.92;0.70;;;;;;;10.91;100.00;98788.41;15276270;19;20038;-51
2023/08/10 03:19:40;;;;;;;1.55;0.73;;;;;;;10.87;100.00;98788.88;15285880;19;20340;-51
2023/08/10 03:25:06;;;;;;;1.10;0.80;;;;;;;10.83;100.00;98782.09;15284093;19;20011;-51
2023/08/10 03:30:32;;;;;;;1.17;0.60;;;;;;;10.75;100.00;98780.16;15286860;19;20026;-54
2023/08/10 03:36:02;;;;;;;0.93;0.60;;;;;;;10.69;100.00;98794.25;15296360;19;20018;-52
2023/08/10 03:41:27;;;;;;;1.30;0.70;;;;;;;10.64;100.00;98800.09;15285790;19;20518;-53
2023/08/10 03:46:53;;;;;;;1.05;0.63;;;;;;;10.59;100.00;98797.00;15286923;19;20045;-54
2023/08/10 03:52:21;;;;;;;0.82;0.60;;;;;;;10.57;100.00;98799.00;15298380;19;20143;-56
2023/08/10 03:57:47;;;;;;;0.60;0.60;;;;;;;10.57;100.00;98799.00;15292373;19;20118;-52
2023/08/10 04:03:11;;;;;;;0.60;0.60;;;;;;;10.60;100.00;98806.78;15291383;19;20022;-53
2023/08/10 04:08:39;;;;;;;2.88;0.80;;;;;;;10.61;100.00;98809.31;15289859;19;20022;-53
2023/08/10 04:14:03;;;;;;;1.17;0.70;;;;;;;10.62;100.00;98802.09;15294874;19;20015;-58
2023/08/10 04:19:28;;;;;;;1.33;0.50;;;;;;;10.60;100.00;98798.69;15286889;19;20022;-55
2023/08/10 04:24:55;;;;;;;0.82;0.60;;;;;;;10.63;100.00;98795.72;15297532;19;20408;-56
2023/08/10 04:30:22;;;;;;;2.17;0.80;;;;;;;10.63;100.00;98806.50;15296917;19;20022;-52
2023/08/10 04:35:47;;;;;;;1.00;0.75;;;;;;;10.64;100.00;98802.81;15293719;19;20082;-53
2023/08/10 04:41:15;;;;;;;2.20;0.60;;;;;;;10.66;100.00;98805.31;15296500;19;20018;-56
2023/08/10 04:46:39;;;;;;;0.70;0.70;;;;;;;10.67;100.00;98802.47;15289728;19;20022;-55
2023/08/10 04:52:05;;;;;;;2.55;0.77;;;;;;;10.69;100.00;98807.72;15285186;19;20015;-53
2023/08/10 04:57:32;;;;;;;1.98;0.80;;;;;;;10.73;100.00;98809.97;15290428;19;20081;-54
2023/08/10 05:02:59;;;;;;;1.15;0.70;;;;;;;10.79;100.00;98813.88;14778906;19;10000725;-55
2023/08/10 05:08:24;;;;;;;1.42;0.73;;;;;;;10.92;100.00;98822.44;15289751;19;20406;-57
2023/08/10 05:13:52;;;;;;;0.82;0.77;;;;;;;11.05;100.00;98821.22;15291696;19;20029;-59
2023/08/10 05:19:16;;;;;;;1.42;0.88;;;;;;;11.19;100.00;98833.28;15288708;19;20014;-58
2023/08/10 05:24:41;;;;;;;0.88;0.73;;;;;;;11.31;100.00;98834.75;15288174;19;20098;-59
2023/08/10 05:30:11;;;;;;;1.95;0.80;;;;;;;11.43;100.00;98829.94;15292149;19;20645;-60
2023/08/10 05:35:37;;;;;;;1.25;0.82;;;;;;;11.55;100.00;98830.56;15291337;19;20078;-56
2023/08/10 05:41:03;;;;;;;1.20;0.80;;;;;;;11.64;100.00;98837.69;15290374;19;20555;-57
2023/08/10 05:46:31;;;;;;;1.55;0.82;;;;;;;11.75;100.00;98842.00;15287990;19;20539;-57
2023/08/10 05:51:55;;;;;;;2.08;0.93;;;;;;;11.86;100.00;98857.06;15285476;19;20010;-58
2023/08/10 05:57:20;;;;;;;1.08;0.80;;;;;;;11.94;100.00;98864.38;15284743;19;20020;-53
2023/08/10 06:02:48;;;;;;;1.67;0.90;;;;;;;11.99;100.00;98860.22;15290108;19;20089;-58
2023/08/10 06:08:16;;;;;;;1.38;0.80;;;;;;;12.08;100.00;98865.66;15285515;19;20147;-58
2023/08/10 06:13:41;;;;;;;2.10;0.85;;;;;;;12.18;100.00;98861.00;15288764;19;20385;-58
2023/08/10 06:19:09;;;;;;;1.55;0.90;;;;;;;12.30;100.00;98870.50;15291788;19;20081;-57
2023/08/10 06:24:33;;;;;;;1.52;0.80;;;;;;;12.44;100.00;98866.38;15280217;19;20018;-56
2023/08/10 06:29:58;;;;;;;2.38;0.80;;;;;;;12.56;100.00;98866.91;15288436;19;20022;-58
2023/08/10 06:35:27;;;;;;;1.05;0.90;;;;;;;12.68;100.00;98872.00;15284591;19;20086;-55
2023/08/10 06:40:54;;;;;;;0.88;0.82;;;;;;;12.81;100.00;98869.69;15293921;19;20375;-58
2023/08/10 06:46:18;;;;;;;1.23;0.80;;;;;;;13.01;100.00;98861.28;15290189;19;20363;-55
2023/08/10 06:51:46;;;;;;;2.05;0.90;;;;;;;13.19;100.00;98867.41;15324125;19;20006;-61
2023/08/10 06:57:10;;;;;;;1.20;0.90;;;;;;;13.41;100.00;98870.50;15339138;19;20014;-62
2023/08/10 07:02:35;;;;;;;0.85;0.80;;;;;;;13.56;100.00;98866.13;15312021;19;20233;-61
2023/08/10 07:08:03;;;;;;;0.95;0.80;;;;;;;13.73;100.00;98873.38;15284898;19;20078;-57
2023/08/10 07:13:28;;;;;;;3.50;0.90;;;;;;;13.87;100.00;98865.41;15313221;19;20023;-59
2023/08/10 07:18:52;;;;;;;1.00;0.90;;;;;;;14.02;100.00;98864.69;15293336;19;20039;-60
2023/08/10 07:24:21;;;;;;;1.67;1.00;;;;;;;14.17;100.00;98864.81;15298726;19;20731;-60
2023/08/10 07:29:46;;;;;;;1.52;1.05;;;;;;;14.34;100.00;98873.75;15299893;19;20029;-62
2023/08/10 07:35:12;;;;;;;2.15;0.98;;;;;;;14.45;100.00;98861.69;15295245;19;20011;-60
2023/08/10 07:40:39;;;;;;;1.13;0.93;;;;;;;14.63;100.00;98870.41;15303101;19;20015;-61
2023/08/10 07:46:04;;;;;;;2.28;0.95;;;;;;;14.86;100.00;98868.81;15297228;19;20094;-63
2023/08/10 07:51:35;;;;;;;2.78;1.10;;;;;;;15.07;100.00;98879.03;15294686;19;20010;-63
2023/08/10 07:57:03;;;;;;;1.25;1.00;;;;;;;15.27;100.00;98873.97;15297325;19;20412;-60
2023/08/10 08:02:21;;;;;;;1.77;1.10;;;;;;;15.49;100.00;98880.44;15291137;19;20014;-61
2023/08/10 08:07:45;;;;;;;2.03;0.93;;;;;;;15.69;100.00;98864.50;15289357;19;20474;-61
2023/08/10 08:13:12;;;;;;;3.60;1.08;;;;;;;15.86;100.00;98872.50;15296916;19;20086;-60
2023/08/10 08:18:57;;;;;;;1.15;0.85;;;;;;;16.08;100.00;98867.19;15293885;19;20007;-61
2023/08/10 08:24:22;;;;;;;1.17;1.00;;;;;;;16.24;100.00;98860.72;15294888;19;20389;-57
2023/08/10 08:29:50;;;;;;;2.08;0.80;;;;;;;16.53;100.00;98864.47;15299295;19;20476;-60
2023/08/10 08:35:14;;;;;;;2.13;0.95;;;;;;;16.73;100.00;98851.97;15288848;19;20605;-60
2023/08/10 08:40:40;;;;;;;1.33;1.00;;;;;;;17.00;100.00;98849.59;15293559;19;20010;-61
2023/08/10 08:46:09;;;;;;;3.03;0.95;;;;;;;17.10;100.00;98838.41;15291043;19;20479;-62
2023/08/10 08:51:41;;;;;;;2.80;0.90;;;;;;;17.25;100.00;98841.06;15292429;19;20533;-59
2023/08/10 08:57:07;;;;;;;1.48;0.90;;;;;;;17.37;100.00;98844.09;15293925;19;20014;-60
2023/08/10 09:02:35;;;;;;;1.83;1.08;;;;;;;17.50;100.00;98837.94;15292317;19;20018;-60
2023/08/10 09:08:00;;;;;;;0.95;0.80;;;;;;;17.56;100.00;98831.69;15287159;19;20070;-61
2023/08/10 09:13:27;;;;;;;2.17;0.85;;;;;;;17.67;100.00;98828.44;15294246;19;20082;-61
2023/08/10 09:18:54;;;;;;;1.88;0.90;;;;;;;17.98;100.00;98820.94;15290415;19;20073;-61
2023/08/10 09:24:19;;;;;;;2.60;1.13;;;;;;;18.27;100.00;98816.28;15291156;19;20021;-60
2023/08/10 09:29:43;;;;;;;2.08;0.80;;;;;;;18.59;100.00;98816.66;15292994;19;20078;-61
2023/08/10 09:35:11;;;;;;;2.00;0.90;;;;;;;18.89;100.00;98829.97;15290995;19;20073;-60
2023/08/10 09:40:36;;;;;;;1.77;0.82;;;;;;;18.98;100.00;98811.53;15276289;19;20337;-62
2023/08/10 09:46:11;;;;;;;1.50;0.82;;;;;;;18.88;100.00;98823.69;15286080;19;20022;-59
2023/08/10 09:51:49;;;;;;;0.90;0.70;;;;;;;19.16;100.00;98835.53;15285728;19;20082;-63
2023/08/10 09:57:15;;;;;;;2.75;1.00;;;;;;;19.16;100.00;98824.59;15287667;19;20493;-62
2023/08/10 10:02:40;;;;;;;2.25;0.90;;;;;;;19.38;100.00;98817.91;15288344;19;20028;-61
2023/08/10 10:08:08;;;;;;;2.95;0.90;;;;;;;19.48;100.00;98825.69;15288315;19;20021;-62
2023/08/10 10:13:34;;;;;;;3.28;0.90;;;;;;;19.30;100.00;98823.59;15282809;19;20015;-62
2023/08/10 10:19:00;;;;;;;0.70;0.70;;;;;;;19.20;100.00;98820.41;15289028;19;20018;-60
2023/08/10 10:24:31;;;;;;;1.27;0.77;;;;;;;19.31;100.00;98828.00;15281518;19;20022;-60
2023/08/10 10:30:01;;;;;;;2.05;0.80;;;;;;;19.51;100.00;98818.97;15282249;19;20463;-61
2023/08/10 10:35:30;;;;;;;1.25;0.80;;;;;;;19.58;100.00;98825.25;15285065;19;20489;-61
2023/08/10 10:40:58;;;;;;;1.30;0.70;;;;;;;19.74;100.00;98809.50;15285767;19;20747;-61
2023/08/10 10:46:45;;;;;;;1.02;0.82;;;;;;;20.01;100.00;98796.66;15296605;19;20473;-61
2023/08/10 10:52:16;;;;;;;2.65;0.70;;;;;;;19.96;100.00;98791.84;15282192;19;20556;-61
2023/08/10 10:57:45;;;;;;;1.85;0.80;;;;;;;20.05;100.00;98799.84;15281663;19;20027;-61
2023/08/10 11:03:13;;;;;;;1.73;0.80;;;;;;;20.12;100.00;98790.53;15283115;19;20411;-59
2023/08/10 11:08:38;;;;;;;1.83;0.70;;;;;;;20.21;100.00;98796.63;15281059;19;20029;-60
2023/08/10 11:14:05;;;;;;;1.08;0.77;;;;;;;20.35;100.00;98791.09;15274109;19;20036;-58
2023/08/10 11:19:33;;;;;;;2.65;0.80;;;;;;;20.28;100.00;98789.25;15275657;19;20010;-58
2023/08/10 11:24:57;;;;;;;1.88;0.80;;;;;;;20.45;100.00;98783.28;15284548;19;20021;-58
2023/08/10 11:30:25;;;;;;;2.25;0.70;;;;;;;20.45;100.00;98781.38;15284374;19;20014;-59
2023/08/10 11:35:52;;;;;;;2.03;0.90;;;;;;;20.44;100.00;98770.66;15279709;19;20415;-58
2023/08/10 11:41:17;;;;;;;1.60;0.80;;;;;;;20.54;100.00;98771.00;15282158;19;20497;-59
2023/08/10 11:46:45;;;;;;;1.05;0.70;;;;;;;20.55;100.00;98772.69;15272903;19;20018;-59
2023/08/10 11:52:22;;;;;;;1.35;0.77;;;;;;;20.78;100.00;98757.66;15289110;19;20021;-59
2023/08/10 11:57:49;;;;;;;1.45;0.88;;;;;;;20.85;100.00;98763.09;15289670;19;20090;-59
2023/08/10 12:03:31;;;;;;;3.15;0.80;;;;;;;20.67;100.00;98763.78;15306481;19;20006;-57
2023/08/10 12:08:57;;;;;;;0.82;0.60;;;;;;;20.69;100.00;98751.59;15294336;19;20015;-58
2023/08/10 12:14:23;;;;;;;1.63;0.63;;;;;;;20.74;100.00;98739.97;15343308;19;20018;-60
2023/08/10 12:19:50;;;;;;;0.77;0.50;;;;;;;20.71;100.00;98741.22;15359468;19;20013;-60
2023/08/10 12:25:17;;;;;;;0.77;0.70;;;;;;;20.86;100.00;98743.72;15350716;19;20015;-60
2023/08/10 12:30:42;;;;;;;1.30;0.70;;;;;;;20.83;95.56;98752.38;15335913;19;20086;-56
2023/08/10 12:36:09;;;;;;;0.88;0.60;;;;;;;21.11;99.17;98742.91;15294851;19;20047;-57
2023/08/10 12:41:34;;;;;;;1.73;0.70;;;;;;;21.36;97.64;98733.84;15295590;19;20478;-57
2023/08/10 12:46:58;;;;;;;1.58;0.60;;;;;;;21.67;96.16;98729.41;15290041;19;21624;-58
2023/08/10 12:52:25;;;;;;;2.72;0.70;;;;;;;21.79;91.29;98724.00;15286738;19;20090;-56
2023/08/10 12:57:50;;;;;;;1.25;0.70;;;;;;;21.82;92.52;98727.09;15284132;19;20032;-58
2023/08/10 13:03:15;;;;;;;1.33;0.70;;;;;;;22.06;96.70;98720.97;15292507;19;20280;-58
2023/08/10 13:08:42;;;;;;;1.38;0.70;;;;;;;22.11;90.03;98712.88;15288290;19;20042;-57
2023/08/10 13:14:08;;;;;;;2.58;0.80;;;;;;;21.87;78.51;98720.97;15316512;19;20018;-59
2023/08/10 13:19:33;;;;;;;1.10;0.60;;;;;;;21.86;86.14;98716.53;15289518;19;20479;-56
2023/08/10 13:25:01;;;;;;;1.52;0.68;;;;;;;21.85;75.03;98710.19;15256686;19;20010;-60
2023/08/10 13:30:27;;;;;;;0.70;0.50;;;;;;;22.23;80.25;98711.03;15282461;19;20011;-58
2023/08/10 13:35:53;;;;;;;1.08;0.60;;;;;;;22.40;72.28;98726.88;15289408;19;20495;-56
2023/08/10 13:41:20;;;;;;;1.75;0.60;;;;;;;22.57;73.75;98718.84;15292615;19;20027;-58
2023/08/10 13:46:46;;;;;;;1.45;0.70;;;;;;;22.98;69.92;98711.72;15285122;19;20035;-55
2023/08/10 13:52:17;;;;;;;0.52;0.50;;;;;;;23.03;68.00;98711.00;15288056;19;20018;-55
2023/08/10 13:57:44;;;;;;;1.55;0.70;;;;;;;22.91;67.47;98710.97;15280081;19;20018;-58
2023/08/10 14:03:11;;;;;;;1.13;0.60;;;;;;;23.18;72.79;98707.81;15284111;19;20543;-60
2023/08/10 14:08:36;;;;;;;1.20;0.80;;;;;;;23.23;60.33;98713.44;15288698;19;20017;-59
2023/08/10 14:14:05;;;;;;;1.25;0.60;;;;;;;23.51;61.27;98707.28;15290639;19;20031;-58
2023/08/10 14:19:31;;;;;;;0.93;0.50;;;;;;;23.58;60.45;98706.31;15300829;19;20014;-55
2023/08/10 14:24:55;;;;;;;0.65;0.50;;;;;;;23.87;62.93;98704.50;15285254;19;20018;-60
2023/08/10 14:30:22;;;;;;;0.68;0.60;;;;;;;24.10;60.56;98702.78;15280096;19;20348;-52
2023/08/10 14:35:47;;;;;;;1.52;0.60;;;;;;;24.10;61.72;98722.06;15279130;19;20006;-57
2023/08/10 14:41:12;;;;;;;1.05;0.60;;;;;;;24.35;57.24;98707.97;15279736;19;20495;-57
2023/08/10 14:46:39;;;;;;;1.60;0.60;;;;;;;24.29;58.02;98708.97;15281318;19;20025;-53
2023/08/10 14:52:10;;;;;;;0.77;0.55;;;;;;;24.37;55.41;98711.31;15279037;19;20018;-57
2023/08/10 14:57:35;;;;;;;1.17;0.40;;;;;;;24.61;57.44;98709.34;15280921;19;20020;-55
2023/08/10 15:03:03;;;;;;;0.80;0.47;;;;;;;24.39;53.77;98711.94;15277855;19;20022;-59
2023/08/10 15:08:28;;;;;;;1.45;0.50;;;;;;;24.02;54.45;98711.44;15286159;19;20026;-56
2023/08/10 15:13:52;;;;;;;1.27;0.60;;;;;;;24.27;57.18;98713.88;15285569;19;20472;-57
2023/08/10 15:19:19;;;;;;;5.05;0.70;;;;;;;24.49;54.40;98713.19;15285661;19;20032;-55
2023/08/10 15:24:44;;;;;;;1.38;0.70;;;;;;;24.82;57.63;98715.25;15284099;19;20085;-56
2023/08/10 15:30:11;;;;;;;1.05;0.55;;;;;;;24.74;55.58;98707.41;15287138;19;20014;-58
2023/08/10 15:35:39;;;;;;;0.73;0.60;;;;;;;24.79;56.86;98709.41;15274797;19;20022;-58
2023/08/10 15:41:05;;;;;;;1.05;0.50;;;;;;;25.14;54.48;98711.94;15301293;19;20017;-56
2023/08/10 15:46:31;;;;;;;1.13;0.52;;;;;;;25.01;56.80;98709.50;15296862;19;20018;-55
2023/08/10 15:52:05;;;;;;;1.40;0.60;;;;;;;25.21;53.25;98701.59;15295313;19;20021;-56
2023/08/10 15:57:30;;;;;;;1.58;0.50;;;;;;;25.20;52.24;98710.94;15295618;19;20351;-58
2023/08/10 16:02:54;;;;;;;1.48;0.55;;;;;;;25.04;54.89;98714.53;15298088;19;20366;-58
2023/08/10 16:08:21;;;;;;;2.50;0.60;;;;;;;24.93;52.35;98711.59;15283138;19;20010;-56
2023/08/10 16:13:46;;;;;;;1.67;0.70;;;;;;;24.90;53.40;98712.09;15297339;19;20472;-56
2023/08/10 16:19:11;;;;;;;1.17;0.50;;;;;;;24.41;50.95;98712.53;15298399;19;20007;-59
2023/08/10 16:24:39;;;;;;;1.00;0.60;;;;;;;24.25;54.97;98716.88;15296014;19;20013;-56
2023/08/10 16:30:04;;;;;;;1.13;0.50;;;;;;;24.03;55.41;98726.88;15297214;19;20037;-56
2023/08/10 16:35:29;;;;;;;3.08;0.70;;;;;;;23.70;55.06;98724.47;15293940;19;20434;-57
2023/08/10 16:40:56;;;;;;;1.00;0.63;;;;;;;23.58;56.70;98723.63;15290309;19;20017;-56
2023/08/10 16:46:22;;;;;;;2.72;0.70;;;;;;;23.27;57.52;98727.56;15291692;19;20045;-58
2023/08/10 16:51:53;;;;;;;3.92;0.60;;;;;;;23.04;56.15;98737.41;15288124;19;20022;-58
2023/08/10 16:57:20;;;;;;;;;;;;;;;22.70;55.90;98748.88;15291986;19;20020;-58
2023/08/10 17:02:45;;;;;;;1.50;0.70;;;;;;;22.48;58.05;98740.31;15295345;19;20320;-58
2023/08/10 17:08:10;;;;;;;2.88;0.63;;;;;;;22.28;55.82;98737.81;15286004;19;20015;-57
2023/08/10 17:13:37;;;;;;;1.80;0.70;;;;;;;22.12;56.80;98741.97;15291717;19;20070;-54
2023/08/10 17:19:03;;;;;;;3.65;0.57;;;;;;;21.99;58.49;98749.28;15293790;19;20007;-54
2023/08/10 17:24:27;;;;;;;1.38;0.60;;;;;;;21.96;61.53;98743.44;15293782;19;20081;-54
2023/08/10 17:29:54;;;;;;;1.42;0.60;;;;;;;21.84;59.31;98741.44;15293486;19;20336;-54
2023/08/10 17:35:19;;;;;;;1.75;0.75;;;;;;;21.72;59.79;98743.25;15291002;19;20351;-53
2023/08/10 17:40:44;;;;;;;2.20;0.68;;;;;;;21.63;59.12;98750.09;15285324;19;20018;-52
2023/08/10 17:46:11;;;;;;;0.80;0.40;;;;;;;21.56;60.31;98750.13;15282551;19;20018;-56
2023/08/10 17:51:42;;;;;;;1.30;0.65;;;;;;;21.42;58.34;98751.28;15289189;19;20396;-53
2023/08/10 17:57:07;;;;;;;0.88;0.60;;;;;;;21.32;59.06;98749.91;15295197;19;20033;-54
2023/08/10 18:02:34;;;;;;;1.08;0.60;;;;;;;21.25;60.54;98749.97;15295993;19;20014;-53
2023/08/10 18:08:00;;;;;;;1.15;0.73;;;;;;;21.21;59.39;98756.09;15299243;19;20014;-55
2023/08/10 18:13:24;;;;;;;2.97;0.60;;;;;;;21.26;61.44;98761.78;15283280;19;20082;-58
2023/08/10 18:18:51;;;;;;;2.60;0.60;;;;;;;21.24;57.95;98759.25;15281560;19;20039;-57
2023/08/10 18:24:16;;;;;;;2.17;0.70;;;;;;;21.28;60.21;98758.81;15291043;19;20025;-56
2023/08/10 18:29:42;;;;;;;1.50;0.50;;;;;;;21.25;60.91;98757.34;15288385;19;20471;-53
2023/08/10 18:35:09;;;;;;;1.67;0.63;;;;;;;21.21;59.96;98756.09;15288370;19;20027;-54
2023/08/10 18:40:40;;;;;;;4.20;0.90;;;;;;;21.12;59.75;98760.19;15290473;19;20492;-54
2023/08/10 18:46:05;;;;;;;1.48;0.70;;;;;;;21.06;62.10;98761.91;15278916;19;20033;-58
2023/08/10 18:51:32;;;;;;;0.98;0.45;;;;;;;20.93;60.49;98771.91;15279830;19;20011;-58
2023/08/10 18:56:57;;;;;;;1.58;0.70;;;;;;;20.75;62.90;98777.28;15284286;19;20025;-59
2023/08/10 19:02:23;;;;;;;1.42;0.70;;;;;;;20.62;64.77;98787.22;15286086;19;20033;-58
2023/08/10 19:07:50;;;;;;;2.92;0.70;;;;;;;20.44;67.59;98787.06;15280979;19;20325;-52
2023/08/10 19:13:15;;;;;;;2.60;0.70;;;;;;;20.24;69.97;98793.47;15292660;19;20028;-57
2023/08/10 19:18:39;;;;;;;4.53;0.90;;;;;;;20.09;72.98;98801.91;15291005;19;20021;-57
2023/08/10 19:24:08;;;;;;;3.17;1.10;;;;;;;20.00;74.45;98797.72;15297777;19;20133;-53
2023/08/10 19:29:35;;;;;;;2.45;1.10;;;;;;;19.90;77.44;98809.09;15298666;19;20009;-53
2023/08/10 19:35:00;;;;;;;2.22;1.15;;;;;;;19.77;77.77;98815.38;15296074;19;20025;-52
2023/08/10 19:40:27;;;;;;;3.28;1.10;;;;;;;19.68;80.36;98816.66;15299381;19;20035;-56
2023/08/10 19:45:52;;;;;;;4.00;1.10;;;;;;;19.60;81.65;98820.44;15297103;19;20126;-55
2023/08/10 19:51:16;;;;;;;5.28;1.25;;;;;;;19.50;82.30;98817.28;15287444;19;20475;-57
2023/08/10 19:56:44;;;;;;;2.83;1.08;;;;;;;19.42;81.15;98820.22;15287025;19;20013;-56
2023/08/10 20:02:08;;;;;;;5.95;1.30;;;;;;;19.36;83.91;98825.47;15292773;19;20021;-54
2023/08/10 20:07:33;;;;;;;4.57;1.30;;;;;;;19.31;85.66;98828.00;15286861;19;20015;-51
2023/08/10 20:13:00;;;;;;;2.63;1.20;;;;;;;19.23;89.87;98822.72;15290392;19;20363;-51
2023/08/10 20:18:25;;;;;;;3.05;1.10;;;;;;;19.14;94.62;98826.69;15286507;19;20025;-54
2023/08/10 20:23:50;;;;;;;3.05;1.20;;;;;;;18.94;100.00;98833.78;15281530;19;20032;-55
2023/08/10 20:29:17;;;;;;;4.25;1.02;;;;;;;18.75;100.00;98838.13;15281002;19;20015;-53
2023/08/10 20:34:42;;;;;;;1.77;1.10;;;;;;;18.55;100.00;98838.03;15285389;19;20022;-54
2023/08/10 20:40:10;;;;;;;3.90;1.20;;;;;;;18.33;100.00;98838.16;15289169;19;20014;-54
2023/08/10 20:45:37;;;;;;;2.70;1.17;;;;;;;18.15;100.00;98846.84;15286211;19;20642;-54
2023/08/10 20:51:03;;;;;;;1.73;1.00;;;;;;;18.00;100.00;98843.38;15288554;19;20490;-54
2023/08/10 20:56:28;;;;;;;2.10;1.15;;;;;;;17.89;100.00;98843.91;15283063;19;20025;-54
2023/08/10 21:01:55;;;;;;;4.30;1.13;;;;;;;17.76;100.00;98852.84;15285991;19;20371;-54
2023/08/10 21:07:20;;;;;;;2.03;0.90;;;;;;;17.66;100.00;98853.16;15267031;19;20014;-53
2023/08/10 21:12:45;;;;;;;1.58;0.88;;;;;;;17.53;100.00;98860.19;15290029;19;20377;-55
2023/08/10 21:18:12;;;;;;;2.38;1.00;;;;;;;17.41;100.00;98856.28;15286179;19;20024;-54
2023/08/10 21:23:37;;;;;;;2.90;1.00;;;;;;;17.32;100.00;98852.84;15291956;19;20074;-54
2023/08/10 21:29:02;;;;;;;5.20;1.17;;;;;;;17.24;100.00;98859.25;15280381;19;20466;-50
2023/08/10 21:34:30;;;;;;;4.85;1.02;;;;;;;17.15;100.00;98871.31;15290827;19;20500;-55
2023/08/10 21:39:55;;;;;;;4.50;0.98;;;;;;;17.06;100.00;98870.59;15292937;19;20010;-55
2023/08/10 21:45:20;;;;;;;4.57;1.00;;;;;;;16.97;100.00;98870.91;15287971;19;20662;-55
2023/08/10 21:50:47;;;;;;;6.47;0.90;;;;;;;16.86;100.00;98875.78;15287653;19;20018;-54
2023/08/10 21:56:12;;;;;;;5.60;1.00;;;;;;;16.71;100.00;98883.13;15284873;19;20010;-55
2023/08/10 22:01:36;;;;;;;3.58;1.10;;;;;;;16.57;100.00;98885.69;15277174;19;20383;-55
2023/08/10 22:07:05;;;;;;;2.20;1.00;;;;;;;16.43;100.00;98886.53;15281171;19;20021;-54
2023/08/10 22:12:29;;;;;;;2.25;0.85;;;;;;;16.30;100.00;98881.75;15287217;19;20792;-51
2023/08/10 22:17:54;;;;;;;1.92;1.17;;;;;;;16.17;100.00;98887.81;15280413;19;20025;-52
2023/08/10 22:23:22;;;;;;;2.65;0.90;;;;;;;16.06;100.00;98889.13;15285873;19;20020;-48
2023/08/10 22:28:50;;;;;;;2.55;1.00;;;;;;;15.93;100.00;98887.06;15290556;19;20030;-55
2023/08/10 22:34:17;;;;;;;4.03;1.00;;;;;;;15.82;100.00;98885.59;15294808;19;20027;-52
2023/08/10 22:39:45;;;;;;;3.20;1.00;;;;;;;15.72;100.00;98894.00;15280334;19;20010;-53
2023/08/10 22:45:11;;;;;;;3.75;0.90;;;;;;;15.62;100.00;98890.69;15284267;19;20015;-51
2023/08/10 22:50:42;;;;;;;4.60;0.95;;;;;;;15.51;100.00;98894.69;15283657;19;20027;-54
2023/08/10 22:56:12;;;;;;;2.67;0.90;;;;;;;15.45;100.00;98889.13;15281165;19;20555;-55
2023/08/10 23:01:36;;;;;;;1.73;0.80;;;;;;;15.36;100.00;98894.59;15284629;19;20025;-52
2023/08/10 23:07:02;;;;;;;2.22;0.80;;;;;;;15.25;100.00;98895.88;15275634;19;20028;-49
2023/08/10 23:12:29;;;;;;;3.35;1.05;;;;;;;15.09;100.00;98888.69;15284190;19;20037;-52
2023/08/10 23:17:54;;;;;;;3.35;1.08;;;;;;;14.98;100.00;98891.81;15281928;19;20029;-49
2023/08/10 23:23:18;;;;;;;2.55;1.02;;;;;;;14.89;100.00;98895.56;15284040;19;20050;-53
2023/08/10 23:28:52;;;;;;;2.67;1.00;;;;;;;14.69;100.00;98900.59;15279841;19;20030;-52
2023/08/10 23:34:18;;;;;;;6.30;1.08;;;;;;;14.57;100.00;98898.25;15295881;19;20341;-52
2023/08/10 23:39:43;;;;;;;3.05;0.90;;;;;;;14.49;100.00;98890.13;15282249;19;20011;-55
2023/08/10 23:45:14;;;;;;;1.83;0.90;;;;;;;14.45;100.00;98900.47;15286142;19;20018;-50
2023/08/10 23:50:38;;;;;;;2.83;1.10;;;;;;;14.40;100.00;98892.03;15278055;19;20744;-52
2023/08/10 23:56:04;;;;;;;1.90;0.90;;;;;;;14.37;100.00;98903.22;15279747;19;20015;-49
